Terminal Aerodrome Forecast
Issued by NWS Grand Forks, ND

Home | Current Version | Previous Version | Text Only | Print | Product List | Glossary Off
Versions: 1 2 3 4 5 6 7 8 9 10 11 12

248
FTUS43 KFGF 150520
TAFGFK
TAF
KGFK 150520Z 1506/1606 17007KT P6SM FEW250
     FM151800 20011KT P6SM SKC=

USA.gov is the U.S. government's official web portal to all federal, state and local government web resources and services.